createdAt,value
2022-10-18T00:00:09.400Z,143.25
2022-10-18T00:02:39.794Z,136.25
2022-10-18T00:05:09.251Z,146.93
2022-10-18T00:07:38.185Z,125.22
2022-10-18T00:10:08.094Z,146.32
2022-10-18T00:12:38.399Z,139.30
2022-10-18T00:15:09.345Z,140.32
2022-10-18T00:17:40.360Z,140.70
2022-10-18T00:20:09.700Z,151.52
2022-10-18T00:22:41.156Z,139.35
2022-10-18T00:25:11.758Z,157.27
2022-10-18T00:27:40.817Z,132.07
2022-10-18T00:30:10.254Z,143.52
2022-10-18T00:32:41.698Z,152.98
2022-10-18T00:35:11.474Z,159.10
2022-10-18T00:37:40.458Z,170.30
2022-10-18T00:40:10.688Z,165.05
2022-10-18T00:42:39.999Z,148.35
2022-10-18T00:45:22.294Z,138.88
2022-10-18T00:50:33.518Z,140.35
2022-10-18T00:53:06.218Z,145.85
2022-10-18T00:55:36.118Z,139.45
2022-10-18T00:58:07.096Z,152.10
2022-10-18T01:00:41.820Z,145.60
2022-10-18T01:03:13.847Z,139.68
2022-10-18T01:05:50.870Z,148.88
2022-10-18T01:08:42.400Z,140.40
2022-10-18T01:11:32.374Z,150.05
2022-10-18T01:15:02.554Z,143.30
2022-10-18T01:17:49.186Z,168.45
2022-10-18T01:20:43.619Z,160.70
2022-10-18T01:23:18.136Z,154.13
2022-10-18T01:26:05.978Z,154.65
2022-10-18T01:28:59.386Z,127.13
2022-10-18T01:31:39.422Z,129.05
2022-10-18T01:34:11.619Z,145.60
2022-10-18T01:36:53.191Z,129.35
2022-10-18T01:39:29.682Z,141.07
2022-10-18T01:42:02.930Z,143.30
2022-10-18T01:44:34.282Z,118.50
2022-10-18T01:47:05.200Z,136.63
2022-10-18T01:49:34.521Z,135.52
2022-10-18T01:52:04.464Z,145.07
2022-10-18T01:54:40.895Z,128.75
2022-10-18T01:57:55.328Z,141.10
2022-10-18T02:00:30.107Z,166.00
2022-10-18T02:03:06.906Z,156.95
2022-10-18T02:05:46.519Z,157.90
2022-10-18T02:08:33.514Z,137.18
2022-10-18T02:11:09.725Z,160.02
2022-10-18T02:13:43.318Z,170.73
2022-10-18T02:16:32.731Z,183.25
2022-10-18T02:19:30.871Z,183.25
2022-10-18T02:22:02.587Z,172.98
2022-10-18T02:24:40.193Z,186.70
2022-10-18T02:27:11.677Z,152.93
2022-10-18T02:29:42.497Z,155.63
2022-10-18T02:32:26.007Z,138.87
2022-10-18T02:35:03.399Z,229.05
2022-10-18T02:37:38.597Z,165.23
2022-10-18T02:40:10.184Z,125.57
2022-10-18T02:45:18.122Z,142.80
2022-10-18T02:47:47.407Z,124.30
2022-10-18T02:50:16.523Z,125.60
2022-10-18T02:52:48.199Z,122.15
2022-10-18T02:55:18.324Z,121.88
2022-10-18T02:57:47.665Z,120.63
2022-10-18T03:00:17.410Z,113.10
2022-10-18T03:02:47.983Z,128.68
2022-10-18T03:05:18.257Z,120.93
2022-10-18T03:07:48.000Z,119.85
2022-10-18T03:10:18.165Z,120.32
2022-10-18T03:12:47.735Z,123.15
2022-10-18T03:15:18.195Z,118.05
2022-10-18T03:17:47.529Z,106.07
2022-10-18T03:20:16.742Z,121.55
2022-10-18T03:22:46.890Z,120.60
2022-10-18T03:25:17.494Z,106.35
2022-10-18T03:27:46.728Z,120.18
2022-10-18T03:30:15.510Z,119.07
2022-10-18T03:32:44.572Z,134.20
2022-10-18T03:35:15.847Z,116.40
2022-10-18T03:37:46.123Z,119.25
2022-10-18T03:40:15.490Z,115.47
2022-10-18T03:42:46.123Z,115.15
2022-10-18T03:45:16.034Z,115.18
2022-10-18T03:47:46.855Z,116.40
2022-10-18T03:50:16.610Z,107.47
2022-10-18T03:52:45.381Z,116.90
2022-10-18T03:55:16.119Z,140.38
2022-10-18T03:57:45.195Z,107.80
2022-10-18T04:00:14.397Z,120.50
2022-10-18T04:02:43.892Z,97.65
2022-10-18T04:05:13.924Z,95.32
2022-10-18T04:07:43.566Z,103.90
2022-10-18T04:10:12.402Z,116.10
2022-10-18T04:12:46.260Z,106.20
2022-10-18T04:15:16.933Z,111.40
2022-10-18T04:17:47.393Z,112.13
2022-10-18T04:20:16.901Z,109.43
2022-10-18T04:22:46.365Z,217.40
2022-10-18T04:25:22.112Z,130.95
2022-10-18T04:27:53.483Z,102.35
2022-10-18T04:30:25.308Z,126.28
2022-10-18T04:32:54.389Z,111.23
2022-10-18T04:35:26.922Z,114.93
2022-10-18T04:37:56.688Z,111.10
2022-10-18T04:40:25.484Z,123.78
2022-10-18T04:42:55.947Z,111.50
2022-10-18T04:45:27.778Z,96.13
2022-10-18T04:47:56.800Z,99.55
2022-10-18T04:50:25.539Z,94.25
2022-10-18T04:52:54.770Z,85.88
2022-10-18T04:55:23.636Z,87.60
2022-10-18T04:57:53.778Z,85.63
2022-10-18T05:00:22.763Z,95.38
2022-10-18T05:02:51.834Z,73.70
2022-10-18T05:05:20.575Z,73.18
2022-10-18T05:07:49.754Z,76.00
2022-10-18T05:10:18.776Z,90.47
2022-10-18T05:12:47.754Z,76.10
2022-10-18T05:15:16.817Z,70.07
2022-10-18T05:17:45.846Z,68.07
2022-10-18T05:20:19.942Z,68.35
2022-10-18T05:22:49.008Z,57.25
2022-10-18T05:25:17.852Z,64.65
2022-10-18T05:27:51.577Z,43.63
2022-10-18T05:33:29.101Z,49.28
2022-10-18T05:36:01.124Z,48.67
2022-10-18T05:38:31.978Z,48.25
2022-10-18T05:41:05.109Z,49.17
2022-10-18T05:43:41.340Z,47.58
2022-10-18T05:46:15.096Z,48.08
2022-10-18T05:48:45.987Z,63.05
2022-10-18T05:51:15.738Z,50.70
2022-10-18T05:53:44.536Z,48.33
2022-10-18T05:56:15.518Z,58.03
2022-10-18T05:58:51.547Z,50.55
2022-10-18T06:01:22.799Z,56.42
2022-10-18T06:03:54.761Z,45.13
2022-10-18T06:06:24.156Z,57.22
2022-10-18T06:08:53.131Z,57.95
2022-10-18T06:11:23.671Z,46.92
2022-10-18T06:13:54.683Z,43.20
2022-10-18T06:16:40.866Z,55.17
2022-10-18T06:19:10.885Z,55.83
2022-10-18T06:21:41.576Z,51.83
2022-10-18T06:24:11.736Z,55.80
2022-10-18T06:26:41.965Z,45.70
2022-10-18T06:29:13.303Z,64.03
2022-10-18T06:31:43.470Z,49.13
2022-10-18T06:34:13.362Z,57.80
2022-10-18T06:39:30.685Z,52.70
2022-10-18T06:42:00.220Z,53.47
2022-10-18T06:45:10.182Z,47.28
2022-10-18T06:47:50.884Z,49.33
2022-10-18T06:50:20.303Z,59.63
2022-10-18T06:52:52.352Z,55.58
2022-10-18T06:55:23.252Z,50.35
2022-10-18T06:57:54.163Z,43.45
2022-10-18T07:00:23.361Z,41.10
2022-10-18T07:02:52.307Z,41.28
2022-10-18T07:05:21.529Z,47.75
2022-10-18T07:07:54.179Z,44.00
2022-10-18T07:10:26.407Z,47.95
2022-10-18T07:13:07.948Z,64.43
2022-10-18T07:16:03.052Z,46.50
2022-10-18T07:18:32.040Z,58.55
2022-10-18T07:21:03.705Z,45.13
2022-10-18T07:23:36.768Z,49.03
2022-10-18T07:26:31.325Z,46.33
2022-10-18T07:29:03.764Z,42.72
2022-10-18T07:34:01.075Z,56.33
2022-10-18T07:36:30.361Z,57.10
2022-10-18T07:38:59.123Z,41.22
2022-10-18T07:41:28.553Z,47.20
2022-10-18T07:43:58.935Z,31.92
2022-10-18T07:46:28.368Z,40.10
2022-10-18T07:48:57.593Z,44.42
2022-10-18T07:51:27.337Z,61.50
2022-10-18T07:53:56.097Z,43.15
2022-10-18T07:56:25.110Z,41.20
2022-10-18T08:01:42.906Z,37.63
2022-10-18T08:04:16.214Z,48.97
2022-10-18T08:06:45.658Z,48.38
2022-10-18T08:09:14.727Z,40.95
2022-10-18T08:11:43.823Z,61.05
2022-10-18T08:14:12.528Z,46.20
2022-10-18T08:16:41.759Z,47.50
2022-10-18T08:19:10.870Z,34.78
2022-10-18T08:21:40.099Z,44.42
2022-10-18T08:24:09.288Z,41.72
2022-10-18T08:26:39.129Z,41.08
2022-10-18T08:29:22.491Z,43.90
2022-10-18T08:31:54.130Z,35.85
2022-10-18T08:34:23.916Z,48.60
2022-10-18T08:36:56.071Z,50.90
2022-10-18T08:39:25.089Z,49.40
2022-10-18T08:42:30.800Z,55.45
2022-10-18T08:45:04.999Z,34.70
2022-10-18T08:47:46.084Z,51.42
2022-10-18T08:50:44.386Z,60.95
2022-10-18T08:53:26.469Z,46.08
2022-10-18T08:56:15.610Z,45.08
2022-10-18T08:58:46.043Z,49.45
2022-10-18T09:01:25.380Z,61.03
2022-10-18T09:04:25.332Z,50.35
2022-10-18T09:07:06.149Z,43.70
2022-10-18T09:09:57.971Z,39.50
2022-10-18T09:13:00.864Z,41.28
2022-10-18T09:16:03.891Z,33.90
2022-10-18T09:18:50.717Z,40.55
2022-10-18T09:21:26.056Z,27.27
2022-10-18T09:24:19.664Z,33.47
2022-10-18T09:26:50.926Z,35.83
2022-10-18T09:29:44.454Z,54.63
2022-10-18T09:32:35.597Z,47.95
2022-10-18T09:35:17.657Z,45.88
2022-10-18T09:37:54.429Z,27.40
2022-10-18T09:40:29.270Z,33.08
2022-10-18T09:43:07.518Z,40.28
2022-10-18T09:45:40.838Z,30.80
2022-10-18T09:48:15.607Z,48.58
2022-10-18T09:50:44.855Z,39.22
2022-10-18T09:53:23.278Z,33.10
2022-10-18T09:56:07.500Z,40.85
2022-10-18T09:58:48.780Z,42.70
2022-10-18T10:01:22.622Z,40.88
2022-10-18T10:03:52.944Z,29.98
2022-10-18T10:06:31.074Z,29.23
2022-10-18T10:09:06.705Z,35.97
2022-10-18T10:11:41.596Z,37.72
2022-10-18T10:14:18.341Z,35.97
2022-10-18T10:17:04.228Z,38.90
2022-10-18T10:22:42.923Z,27.98
2022-10-18T10:25:30.203Z,35.97
2022-10-18T10:28:05.971Z,30.55
2022-10-18T10:30:38.508Z,36.30
2022-10-18T10:33:28.379Z,32.33
2022-10-18T10:36:01.997Z,45.63
2022-10-18T10:38:32.734Z,32.53
2022-10-18T10:41:02.212Z,42.22
2022-10-18T10:43:40.470Z,60.10
2022-10-18T10:46:13.580Z,37.05
2022-10-18T10:49:35.018Z,30.10
2022-10-18T10:52:08.482Z,25.73
2022-10-18T10:54:51.260Z,25.15
2022-10-18T10:57:27.661Z,80.85
2022-10-18T10:59:59.315Z,35.80
2022-10-18T11:02:32.717Z,30.38
2022-10-18T11:05:27.521Z,61.42
2022-10-18T11:08:01.980Z,41.22
2022-10-18T11:10:35.975Z,29.30
2022-10-18T11:13:25.000Z,26.70
2022-10-18T11:19:28.738Z,28.52
2022-10-18T11:21:58.657Z,33.13
2022-10-18T11:24:27.625Z,42.85
2022-10-18T11:27:38.008Z,38.88
2022-10-18T11:30:25.176Z,35.58
2022-10-18T11:33:50.038Z,42.75
2022-10-18T11:36:49.320Z,36.38
2022-10-18T11:39:49.268Z,42.88
2022-10-18T11:48:28.811Z,52.72
2022-10-18T11:51:29.670Z,43.08
2022-10-18T11:54:43.298Z,52.47
2022-10-18T11:57:37.566Z,54.53
2022-10-18T12:00:24.793Z,51.05
2022-10-18T12:03:08.878Z,52.58
2022-10-18T12:05:41.101Z,45.30
2022-10-18T12:08:43.171Z,52.83
2022-10-18T12:11:35.174Z,60.63
2022-10-18T12:14:12.227Z,48.95
2022-10-18T12:16:51.345Z,43.05
2022-10-18T12:19:28.989Z,58.25
2022-10-18T12:22:03.865Z,51.95
2022-10-18T12:24:34.342Z,42.88
2022-10-18T12:27:04.841Z,65.55
2022-10-18T12:29:52.015Z,55.47
2022-10-18T12:32:26.725Z,69.38
2022-10-18T12:35:29.691Z,71.97
2022-10-18T12:38:22.827Z,69.05
2022-10-18T12:40:55.169Z,69.95
2022-10-18T12:43:37.696Z,62.17
2022-10-18T12:46:13.270Z,58.47
2022-10-18T12:48:46.514Z,60.17
2022-10-18T12:51:23.764Z,63.13
2022-10-18T12:54:01.985Z,60.33
2022-10-18T12:56:32.029Z,75.88
2022-10-18T12:59:16.201Z,66.03
2022-10-18T13:01:54.407Z,58.22
2022-10-18T13:04:29.904Z,72.28
2022-10-18T13:07:09.247Z,80.90
2022-10-18T13:10:04.842Z,74.57
2022-10-18T13:13:29.559Z,72.30
2022-10-18T13:16:09.596Z,81.15
2022-10-18T13:19:18.710Z,75.35
2022-10-18T13:21:58.071Z,84.05
2022-10-18T13:24:42.822Z,97.07
2022-10-18T13:27:49.173Z,84.40
2022-10-18T13:30:39.884Z,86.70
2022-10-18T13:33:40.960Z,87.22
2022-10-18T13:36:22.876Z,91.18
2022-10-18T13:39:15.505Z,81.13
2022-10-18T13:41:44.525Z,93.87
2022-10-18T13:44:38.530Z,90.07
2022-10-18T13:47:08.036Z,83.25
2022-10-18T13:50:17.456Z,91.63
2022-10-18T13:53:07.777Z,97.60
2022-10-18T13:55:49.780Z,92.50
2022-10-18T13:59:15.806Z,87.40
2022-10-18T14:02:36.402Z,81.00
2022-10-18T14:05:44.640Z,91.65
2022-10-18T14:08:37.405Z,96.43
2022-10-18T14:13:49.289Z,96.68
2022-10-18T14:16:35.842Z,98.72
2022-10-18T14:19:22.785Z,84.13
2022-10-18T14:22:19.616Z,86.05
2022-10-18T14:24:54.914Z,90.28
2022-10-18T14:27:27.518Z,78.80
2022-10-18T14:30:18.117Z,82.18
2022-10-18T14:32:53.157Z,78.80
2022-10-18T14:35:38.673Z,87.57
2022-10-18T14:38:15.272Z,73.28
2022-10-18T14:40:44.315Z,86.68
2022-10-18T14:43:21.351Z,93.63
2022-10-18T14:45:50.499Z,81.03
2022-10-18T14:48:23.752Z,88.38
2022-10-18T14:51:04.819Z,91.32
2022-10-18T14:53:38.918Z,81.15
2022-10-18T14:56:09.352Z,81.53
2022-10-18T14:58:39.473Z,94.70
2022-10-18T15:01:08.783Z,82.95
2022-10-18T15:03:37.987Z,77.40
2022-10-18T15:06:09.088Z,79.32
2022-10-18T15:08:43.173Z,68.13
2022-10-18T15:11:15.095Z,87.68
2022-10-18T15:13:51.119Z,84.22
2022-10-18T15:16:22.370Z,76.25
2022-10-18T15:19:25.974Z,82.90
2022-10-18T15:25:05.949Z,85.40
2022-10-18T15:27:39.336Z,84.40
2022-10-18T15:30:38.773Z,78.68
2022-10-18T15:33:12.288Z,89.50
2022-10-18T15:35:42.272Z,95.72
2022-10-18T15:38:18.463Z,79.97
2022-10-18T15:40:48.394Z,93.97
2022-10-18T15:43:29.717Z,101.63
2022-10-18T15:46:06.925Z,82.00
2022-10-18T15:48:42.013Z,75.85
2022-10-18T15:51:54.361Z,76.25
2022-10-18T15:54:32.224Z,70.05
2022-10-18T15:57:08.812Z,65.85
2022-10-18T15:59:53.937Z,67.97
2022-10-18T16:02:23.063Z,63.38
2022-10-18T16:04:51.887Z,64.95
2022-10-18T16:07:21.223Z,49.90
2022-10-18T16:09:49.996Z,46.55
2022-10-18T16:12:19.039Z,42.58
2022-10-18T16:14:47.997Z,47.75
2022-10-18T16:17:18.271Z,48.60
2022-10-18T16:19:47.304Z,55.65
2022-10-18T16:22:16.791Z,37.33
2022-10-18T16:24:45.797Z,54.55
2022-10-18T16:27:14.527Z,49.92
2022-10-18T16:29:44.073Z,38.30
2022-10-18T16:32:12.906Z,34.10
2022-10-18T16:34:42.053Z,41.10
2022-10-18T16:37:11.100Z,45.88
2022-10-18T16:39:40.131Z,42.65
2022-10-18T16:42:08.910Z,37.05
2022-10-18T16:44:38.085Z,32.78
2022-10-18T16:47:07.020Z,39.42
2022-10-18T16:49:36.095Z,41.63
2022-10-18T16:52:05.208Z,48.80
2022-10-18T16:54:34.233Z,43.33
2022-10-18T16:57:03.183Z,47.63
2022-10-18T16:59:33.296Z,43.03
2022-10-18T17:02:06.928Z,52.63
2022-10-18T17:04:37.171Z,43.22
2022-10-18T17:07:06.514Z,45.38
2022-10-18T17:09:37.909Z,30.92
2022-10-18T17:12:07.003Z,36.33
2022-10-18T17:14:37.926Z,41.80
2022-10-18T17:17:07.278Z,52.38
2022-10-18T17:19:36.435Z,38.25
2022-10-18T17:22:06.064Z,40.70
2022-10-18T17:24:34.958Z,33.75
2022-10-18T17:27:04.038Z,31.63
2022-10-18T17:29:32.947Z,32.83
2022-10-18T17:32:02.053Z,35.22
2022-10-18T17:34:31.002Z,24.38
2022-10-18T17:37:00.419Z,30.02
2022-10-18T17:39:29.524Z,27.00
2022-10-18T17:41:59.193Z,31.80
2022-10-18T17:44:28.230Z,27.17
2022-10-18T17:46:57.214Z,24.60
2022-10-18T17:49:26.456Z,32.55
2022-10-18T17:51:55.425Z,25.35
2022-10-18T17:54:24.558Z,35.28
2022-10-18T17:56:53.798Z,28.25
2022-10-18T17:59:24.056Z,21.90
2022-10-18T18:01:53.428Z,17.67
2022-10-18T18:04:22.411Z,20.52
2022-10-18T18:06:53.491Z,16.23
2022-10-18T18:09:22.999Z,21.25
2022-10-18T18:11:52.850Z,19.52
2022-10-18T18:14:22.799Z,19.15
2022-10-18T18:16:52.236Z,26.92
2022-10-18T18:19:21.249Z,16.45
2022-10-18T18:21:50.203Z,17.92
2022-10-18T18:24:25.440Z,17.70
2022-10-18T18:26:56.481Z,21.27
2022-10-18T18:29:27.910Z,20.38
2022-10-18T18:31:58.158Z,17.98
2022-10-18T18:34:27.454Z,14.52
2022-10-18T18:36:56.708Z,15.15
2022-10-18T18:39:30.640Z,15.02
2022-10-18T18:41:59.691Z,17.58
2022-10-18T18:44:28.936Z,15.30
2022-10-18T18:46:59.417Z,18.02
2022-10-18T18:49:28.694Z,19.23
2022-10-18T18:51:57.448Z,14.10
2022-10-18T18:54:26.702Z,12.57
2022-10-18T18:56:55.522Z,19.83
2022-10-18T18:59:24.971Z,11.43
2022-10-18T19:01:54.092Z,10.82
2022-10-18T19:04:23.421Z,16.70
2022-10-18T19:06:52.382Z,23.90
2022-10-18T19:09:23.486Z,14.95
2022-10-18T19:11:54.468Z,12.32
2022-10-18T19:14:26.006Z,9.60
2022-10-18T19:16:58.461Z,17.33
2022-10-18T19:19:30.567Z,10.77
2022-10-18T19:22:04.521Z,14.93
2022-10-18T19:24:33.743Z,7.65
2022-10-18T19:27:05.160Z,17.60
2022-10-18T19:29:37.292Z,6.17
2022-10-18T19:32:09.509Z,16.85
2022-10-18T19:34:39.403Z,6.45
2022-10-18T19:37:10.500Z,17.48
2022-10-18T19:39:39.736Z,11.45
2022-10-18T19:42:19.164Z,10.77
2022-10-18T19:44:52.110Z,11.20
2022-10-18T19:47:21.499Z,9.75
2022-10-18T19:49:50.645Z,15.07
2022-10-18T19:52:19.703Z,12.80
2022-10-18T19:54:50.525Z,21.55
2022-10-18T19:57:19.688Z,13.88
2022-10-18T19:59:48.662Z,8.20
2022-10-18T20:02:17.819Z,8.82
2022-10-18T20:04:46.938Z,14.90
2022-10-18T20:07:15.962Z,9.10
2022-10-18T20:09:44.919Z,11.45
2022-10-18T20:12:14.071Z,11.75
2022-10-18T20:14:43.027Z,17.80
2022-10-18T20:17:14.285Z,13.45
2022-10-18T20:19:43.554Z,10.20
2022-10-18T20:22:12.438Z,9.80
2022-10-18T20:24:41.630Z,8.45
2022-10-18T20:27:10.570Z,10.35
2022-10-18T20:29:39.502Z,7.70
2022-10-18T20:32:09.768Z,8.52
2022-10-18T20:34:38.780Z,18.83
2022-10-18T20:37:07.672Z,10.15
2022-10-18T20:39:36.898Z,9.45
2022-10-18T20:42:05.639Z,13.75
2022-10-18T20:44:35.082Z,7.97
2022-10-18T20:47:03.976Z,7.68
2022-10-18T20:49:33.109Z,15.27
2022-10-18T20:52:02.153Z,7.30
2022-10-18T20:54:31.322Z,7.88
2022-10-18T20:57:00.093Z,8.38
2022-10-18T20:59:29.250Z,7.72
2022-10-18T21:01:58.170Z,6.90
2022-10-18T21:04:27.314Z,9.18
2022-10-18T21:06:56.187Z,7.68
2022-10-18T21:09:25.337Z,5.28
2022-10-18T21:11:57.239Z,10.13
2022-10-18T21:14:28.363Z,12.27
2022-10-18T21:16:57.456Z,10.90
2022-10-18T21:19:28.568Z,6.30
2022-10-18T21:21:58.789Z,10.63
2022-10-18T21:24:28.788Z,7.95
2022-10-18T21:26:57.820Z,4.53
2022-10-18T21:29:27.915Z,6.40
2022-10-18T21:32:00.366Z,9.15
2022-10-18T21:34:29.511Z,32.85
2022-10-18T21:36:58.361Z,39.15
2022-10-18T21:39:27.693Z,19.63
2022-10-18T21:41:56.574Z,27.60
2022-10-18T21:44:25.557Z,34.67
2022-10-18T21:46:56.024Z,29.30
2022-10-18T21:49:25.973Z,23.17
2022-10-18T21:51:54.886Z,32.08
2022-10-18T21:54:24.289Z,22.13
2022-10-18T21:56:53.237Z,20.50
2022-10-18T21:59:22.365Z,22.50
2022-10-18T22:01:53.731Z,24.48
2022-10-18T22:04:24.835Z,11.32
2022-10-18T22:06:54.071Z,17.88
2022-10-18T22:09:23.078Z,11.00
2022-10-18T22:11:54.207Z,14.10
2022-10-18T22:14:24.247Z,13.77
2022-10-18T22:16:53.380Z,15.20
2022-10-18T22:19:22.361Z,13.52
2022-10-18T22:21:51.603Z,11.63
2022-10-18T22:24:20.509Z,12.40
2022-10-18T22:26:49.770Z,6.97
2022-10-18T22:29:21.634Z,10.63
2022-10-18T22:31:53.425Z,10.02
2022-10-18T22:34:25.195Z,12.95
2022-10-18T22:36:54.885Z,11.55
2022-10-18T22:39:24.178Z,18.85
2022-10-18T22:41:56.924Z,27.50
2022-10-18T22:44:28.077Z,23.42
2022-10-18T22:46:57.134Z,21.45
2022-10-18T22:49:26.065Z,27.25
2022-10-18T22:51:55.003Z,13.20
2022-10-18T22:54:23.951Z,11.32
2022-10-18T22:56:53.155Z,17.30
2022-10-18T22:59:22.134Z,11.70
2022-10-18T23:01:51.336Z,14.82
2022-10-18T23:04:20.145Z,29.35
2022-10-18T23:06:49.408Z,20.67
2022-10-18T23:09:18.416Z,20.25
2022-10-18T23:11:49.111Z,24.02
2022-10-18T23:14:19.317Z,39.55
2022-10-18T23:16:48.399Z,49.72
2022-10-18T23:19:17.775Z,31.90
2022-10-18T23:21:47.122Z,35.35
2022-10-18T23:24:16.077Z,31.17
2022-10-18T23:26:45.339Z,32.05
2022-10-18T23:29:14.823Z,29.75
2022-10-18T23:31:43.859Z,24.98
2022-10-18T23:34:13.906Z,29.67
2022-10-18T23:39:17.055Z,27.92
2022-10-18T23:41:45.966Z,28.83
2022-10-18T23:44:15.662Z,35.42
2022-10-18T23:46:44.473Z,26.02
2022-10-18T23:49:13.557Z,26.55
2022-10-18T23:51:42.335Z,23.73
2022-10-18T23:54:11.471Z,18.33
2022-10-18T23:56:40.557Z,23.52
2022-10-18T23:59:09.765Z,16.42
